Cedar Ravine, California
Current Conditions -  °F | °C
As of 5:35 PM on Saturday 20 Dec 2014 (Local Time) from KPVF Reporting Station
Overcast Overcast  
Wind Chill: 46°   Ceiling: 4700
Heat Index: 48°   Visibility: 10mi
Dew Point: 46°   Wind: 6mph
Humidity: 93%   Direction: 110°ESE
Pressure: 30.23"   Gusts: NA
Location:  38.7308°N, 120.774°W
Report Text: KPVF 210135Z AUTO 11005KT 10SM OVC047 09/08 A3023 RMK AO1
Loading
Personal Weather Stations






























Interactive Weather Map New forecast layout! Learn more

10-Day Weather Forecast

Advertisements
Track Severe Weather on mobile